Terminal Aerodrome Forecast
Issued by NWS

Home | Current Version | Previous Version | Text Only | Print | Product List | Glossary On
Versions: 1 2 3 4 5 6 7 8 9 10 11 12 13 14 15 16 17 18 19
000
FTUS43 KJKL 291100
TAFSJS
TAF
KSJS 291139Z 2912/3012 00000KT 4SM BR SKC
     FM291300 VRB03KT P6SM FEW050
     FM292200 VRB03KT P6SM VCTS SCT050CB
     FM300500 VRB03KT P6SM FEW050
     FM300800 00000KT 4SM BR SKC=

USA.gov is the U.S. government's official web portal to all federal, state and local government web resources and services.